Aviation Digital Data Service (ADDS)

Output produced by METARs form (0240 UTC 29 November 2020)
found at http://www.aviationweather.gov/metar/data/
 
EKYT 290236Z AUTO 03002KT 9999 BKN009/// 02/01 Q1030 R88/D
TAF EKYT 290212Z 2903/3003 04005KT 9999 SCT008 BKN015 
     TEMPO 2903/2908 6000 BKN008 
     TEMPO 2908/2917 BKN012 
     BECMG 2912/2915 VRB02KT
       
EKAH 290220Z AUTO 02003KT 9999 OVC013/// 03/01 Q1030
TAF EKAH 282312Z 2900/2924 06005KT 9999 BKN018 
     TEMPO 2900/2924 BKN012
       
EKBI 290220Z AUTO 04003KT 9999 OVC012/// 01/M00 Q1029
TAF EKBI 282312Z 2900/2924 07006KT 9999 BKN005 
     TEMPO 2900/2906 SCT005 BKN015 
     BECMG 2906/2908 BKN018 
     TEMPO 2908/2924 BKN012
       
EKRN 290050Z AUTO 34002KT 9999 BKN021/// 04/03 Q1027
EKEB 290220Z AUTO 05005KT 9999 OVC007/// 01/00 Q1029
TAF AMD EKEB 282125Z 2821/2823 08005KT 6000 BKN015 
     TEMPO 2821/2823 1200 BR BKN008
       
EKKA 290220Z AUTO 11003KT 9999 OVC009/// 02/00 Q1030
TAF EKKA 290212Z 2903/3003 04005KT 9999 SCT008 BKN015 
     TEMPO 2903/2909 4000 BR BKN008 
     BECMG 2906/2909 VRB02KT 
     TEMPO 2909/3003 BKN012
       
EKCH 290220Z 36008KT 340V040 9999 BKN008 02/01 Q1029 NOSIG
TAF EKCH 282312Z 2900/2924 02008KT 9999 BKN008 
     TEMPO 2900/2920 FEW008 
     PROB40 2920/2924 0300 FZFG VV002
       
EKVD 290220Z AUTO 35003KT //// ///////// 02/02 Q1029
TAF AMD EKVD 281502Z 2815/2816 11005KT 2500 BR BKN001 
     TEMPO 2815/2816 6000 NSW BKN008
       
EKRK 290220Z AUTO 35005KT 0600 R11/P1500U R29/P1500D -RA FG OVC002/// M00/M00 Q1029
TAF EKRK 290225Z 2903/2912 36004KT 3000 BR BKN002 
     TEMPO 2903/2905 0600 FG 
     BECMG 2905/2907 8000 NSW BKN008 
     TEMPO 2907/2912 FEW008
       
EKSP 290220Z 05003KT 9999 FEW010 BKN012 01/M00 Q1029
TAF EKSP 290212Z 2903/3003 03005KT 9000 SCT012 BKN015 
     TEMPO 2903/2908 4000 BR BKN008 
     TEMPO 2908/3003 BKN012 
     BECMG 2918/2921 VRB02KT
       
EKSB 290220Z AUTO 02005KT 9999NDV OVC008/// 03/01 Q1029